createdAt,value
2019-05-12T00:01:18.788Z,6.30
2019-05-12T00:03:48.488Z,6.29
2019-05-12T00:06:17.653Z,6.28
2019-05-12T00:08:48.246Z,6.27
2019-05-12T00:11:17.949Z,6.25
2019-05-12T00:13:47.838Z,6.24
2019-05-12T00:16:17.577Z,6.22
2019-05-12T00:18:45.515Z,6.21
2019-05-12T00:21:13.641Z,6.19
2019-05-12T00:23:41.801Z,6.19
2019-05-12T00:26:09.907Z,6.18
2019-05-12T00:28:38.063Z,6.19
2019-05-12T00:31:08.242Z,6.19
2019-05-12T00:33:38.468Z,6.19
2019-05-12T00:36:08.056Z,6.19
2019-05-12T00:38:38.060Z,6.18
2019-05-12T00:41:05.704Z,6.17
2019-05-12T00:43:33.814Z,6.18
2019-05-12T00:46:01.975Z,6.16
2019-05-12T00:48:30.085Z,6.16
2019-05-12T00:50:58.528Z,6.15
2019-05-12T00:53:37.115Z,6.11
2019-05-12T00:55:57.888Z,6.08
2019-05-12T00:58:27.834Z,6.06
2019-05-12T01:00:59.283Z,6.03
2019-05-12T01:03:27.928Z,6.02
2019-05-12T01:05:57.795Z,5.96
2019-05-12T01:08:28.048Z,5.96
2019-05-12T01:10:57.755Z,6.01
2019-05-12T01:13:27.782Z,6.03
2019-05-12T01:15:55.571Z,6.06
2019-05-12T01:18:23.676Z,6.10
2019-05-12T01:20:51.796Z,6.16
2019-05-12T01:23:23.220Z,6.20
2019-05-12T01:25:50.798Z,6.23
2019-05-12T01:28:19.350Z,6.26
2019-05-12T01:30:47.935Z,6.30
2019-05-12T01:33:18.072Z,6.32
2019-05-12T01:35:48.119Z,6.34
2019-05-12T01:38:18.088Z,6.34
2019-05-12T01:40:47.914Z,6.32
2019-05-12T01:43:18.679Z,6.31
2019-05-12T01:45:48.111Z,6.29
2019-05-12T01:48:15.484Z,6.26
2019-05-12T01:50:43.861Z,6.25
2019-05-12T01:53:12.011Z,6.24
2019-05-12T01:55:40.140Z,6.22
2019-05-12T01:58:08.731Z,6.19
2019-05-12T02:00:38.746Z,6.17
2019-05-12T02:03:09.140Z,6.14
2019-05-12T02:05:38.059Z,6.12
2019-05-12T02:08:06.342Z,6.09
2019-05-12T02:10:34.494Z,6.08
2019-05-12T02:13:02.630Z,6.03
2019-05-12T02:15:30.752Z,6.01
2019-05-12T02:17:59.242Z,5.98
2019-05-12T02:20:28.846Z,5.96
2019-05-12T02:22:58.405Z,5.95
2019-05-12T02:25:28.673Z,5.91
2019-05-12T02:27:58.427Z,5.90
2019-05-12T02:30:30.118Z,5.87
2019-05-12T02:32:59.074Z,5.85
2019-05-12T02:35:26.348Z,5.83
2019-05-12T02:37:55.134Z,5.78
2019-05-12T02:40:25.124Z,5.75
2019-05-12T02:42:54.868Z,5.74
2019-05-12T02:45:25.420Z,5.71
2019-05-12T02:47:54.327Z,5.68
2019-05-12T02:50:45.239Z,5.65
2019-05-12T02:53:14.439Z,5.63
2019-05-12T02:55:44.971Z,5.61
2019-05-12T02:58:15.513Z,5.57
2019-05-12T03:00:45.571Z,5.54
2019-05-12T03:03:15.824Z,5.51
2019-05-12T03:05:45.392Z,5.47
2019-05-12T03:08:15.412Z,5.44
2019-05-12T03:10:48.282Z,5.42
2019-05-12T03:13:16.361Z,5.40
2019-05-12T03:15:44.735Z,5.37
2019-05-12T03:18:14.654Z,5.33
2019-05-12T03:20:45.514Z,5.31
2019-05-12T03:23:15.448Z,5.31
2019-05-12T03:25:45.380Z,5.29
2019-05-12T03:28:15.679Z,5.29
2019-05-12T03:30:47.461Z,5.29
2019-05-12T03:33:18.298Z,5.28
2019-05-12T03:35:50.805Z,5.27
2019-05-12T03:38:14.703Z,5.25
2019-05-12T03:40:44.728Z,5.26
2019-05-12T03:43:14.275Z,5.26
2019-05-12T03:45:41.197Z,5.26
2019-05-12T03:48:09.309Z,5.27
2019-05-12T03:50:37.429Z,5.26
2019-05-12T03:53:09.772Z,5.26
2019-05-12T03:55:41.031Z,5.28
2019-05-12T03:58:05.262Z,5.28
2019-05-12T04:00:35.757Z,5.28
2019-05-12T04:03:04.747Z,5.27
2019-05-12T04:05:34.839Z,5.26
2019-05-12T04:08:05.455Z,5.25
2019-05-12T04:10:35.451Z,5.26
2019-05-12T04:13:04.730Z,5.24
2019-05-12T04:15:34.744Z,5.24
2019-05-12T04:18:05.425Z,5.23
2019-05-12T04:20:35.707Z,5.23
2019-05-12T04:23:06.034Z,5.23
2019-05-12T04:25:47.926Z,5.24
2019-05-12T04:28:04.830Z,5.27
2019-05-12T04:30:35.450Z,5.27
2019-05-12T04:33:04.748Z,5.30
2019-05-12T04:35:34.846Z,5.31
2019-05-12T04:38:04.369Z,5.33
2019-05-12T04:40:35.323Z,5.35
2019-05-12T04:43:05.128Z,5.37
2019-05-12T04:45:34.723Z,5.40
2019-05-12T04:48:05.134Z,5.43
2019-05-12T04:50:35.321Z,5.45
2019-05-12T04:53:05.928Z,5.49
2019-05-12T04:55:35.522Z,5.53
2019-05-12T04:58:04.560Z,5.57
2019-05-12T05:00:34.780Z,5.61
2019-05-12T05:03:05.049Z,5.64
2019-05-12T05:05:35.394Z,5.70
2019-05-12T05:08:04.393Z,5.79
2019-05-12T05:10:34.211Z,5.88
2019-05-12T05:13:05.152Z,6.02
2019-05-12T05:15:35.184Z,6.18
2019-05-12T05:18:06.288Z,6.33
2019-05-12T05:20:34.474Z,6.50
2019-05-12T05:23:03.500Z,6.66
2019-05-12T05:25:34.108Z,6.81
2019-05-12T05:28:03.724Z,6.96
2019-05-12T05:30:33.913Z,7.06
2019-05-12T05:33:04.931Z,7.14
2019-05-12T05:35:39.015Z,7.20
2019-05-12T05:38:04.481Z,7.23
2019-05-12T05:40:35.341Z,7.26
2019-05-12T05:43:12.177Z,7.27
2019-05-12T05:45:35.166Z,7.27
2019-05-12T05:48:05.457Z,7.26
2019-05-12T05:50:34.270Z,7.28
2019-05-12T05:53:04.058Z,7.28
2019-05-12T05:55:34.225Z,7.31
2019-05-12T05:58:05.739Z,7.34
2019-05-12T06:00:35.226Z,7.41
2019-05-12T06:03:05.209Z,7.49
2019-05-12T06:05:34.648Z,7.56
2019-05-12T06:08:04.080Z,7.65
2019-05-12T06:10:36.129Z,7.73
2019-05-12T06:13:04.127Z,7.80
2019-05-12T06:15:35.621Z,7.87
2019-05-12T06:18:03.616Z,7.94
2019-05-12T06:20:36.926Z,7.99
2019-05-12T06:23:04.681Z,8.04
2019-05-12T06:25:44.614Z,8.08
2019-05-12T06:28:04.507Z,8.13
2019-05-12T06:30:35.878Z,8.18
2019-05-12T06:33:04.222Z,8.23
2019-05-12T06:35:37.273Z,8.28
2019-05-12T06:38:04.679Z,8.33
2019-05-12T06:40:40.325Z,8.40
2019-05-12T06:43:04.411Z,8.44
2019-05-12T06:45:37.434Z,8.48
2019-05-12T06:48:03.444Z,8.52
2019-05-12T06:50:36.468Z,8.53
2019-05-12T06:53:05.112Z,8.54
2019-05-12T06:55:38.842Z,8.54
2019-05-12T06:58:04.792Z,8.55
2019-05-12T07:00:35.117Z,8.56
2019-05-12T07:03:03.936Z,8.62
2019-05-12T07:05:38.089Z,8.73
2019-05-12T07:08:04.184Z,8.88
2019-05-12T07:10:42.631Z,9.08
2019-05-12T07:13:05.871Z,9.26
2019-05-12T07:15:39.846Z,9.45
2019-05-12T07:18:04.583Z,9.60
2019-05-12T07:20:35.395Z,9.70
2019-05-12T07:23:04.022Z,9.81
2019-05-12T07:25:36.351Z,9.86
2019-05-12T07:28:06.974Z,9.89
2019-05-12T07:30:34.989Z,9.88
2019-05-12T07:33:04.471Z,9.89
2019-05-12T07:35:34.361Z,9.89
2019-05-12T07:38:04.751Z,9.91
2019-05-12T07:40:37.224Z,9.89
2019-05-12T07:43:04.162Z,9.89
2019-05-12T07:45:33.985Z,9.89
2019-05-12T07:48:07.706Z,9.94
2019-05-12T07:50:34.514Z,10.03
2019-05-12T07:53:04.160Z,10.17
2019-05-12T07:55:34.011Z,10.33
2019-05-12T07:58:10.029Z,10.50
2019-05-12T08:00:33.958Z,10.67
2019-05-12T08:03:14.856Z,10.77
2019-05-12T08:05:34.500Z,10.86
2019-05-12T08:08:10.662Z,10.98
2019-05-12T08:10:34.253Z,11.04
2019-05-12T08:13:04.582Z,11.06
2019-05-12T08:15:33.886Z,11.05
2019-05-12T08:18:07.703Z,11.04
2019-05-12T08:20:34.383Z,11.01
2019-05-12T08:23:08.904Z,11.00
2019-05-12T08:25:34.323Z,11.03
2019-05-12T08:28:12.244Z,11.16
2019-05-12T08:30:40.443Z,11.48
2019-05-12T08:33:09.443Z,11.89
2019-05-12T08:35:38.097Z,12.35
2019-05-12T08:38:04.929Z,12.91
2019-05-12T08:40:34.139Z,13.50
2019-05-12T08:43:08.048Z,14.02
2019-05-12T08:45:37.398Z,14.39
2019-05-12T08:48:10.165Z,14.81
2019-05-12T08:50:36.172Z,15.38
2019-05-12T08:53:04.975Z,15.90
2019-05-12T08:55:35.759Z,16.32
2019-05-12T08:58:04.925Z,16.77
2019-05-12T09:00:46.343Z,17.05
2019-05-12T09:03:10.284Z,16.93
2019-05-12T09:05:38.898Z,16.89
2019-05-12T09:08:07.084Z,16.74
2019-05-12T09:10:35.255Z,16.28
2019-05-12T09:13:04.246Z,15.85
2019-05-12T09:15:35.356Z,15.90
2019-05-12T09:18:04.936Z,16.16
2019-05-12T09:20:33.731Z,16.42
2019-05-12T09:23:02.746Z,16.72
2019-05-12T09:25:33.845Z,16.95
2019-05-12T09:28:03.570Z,17.04
2019-05-12T09:30:33.523Z,17.06
2019-05-12T09:33:03.728Z,17.10
2019-05-12T09:35:34.980Z,17.20
2019-05-12T09:38:05.747Z,17.26
2019-05-12T09:40:34.926Z,17.35
2019-05-12T09:43:06.360Z,17.44
2019-05-12T09:45:33.419Z,17.57
2019-05-12T09:48:04.882Z,17.59
2019-05-12T09:50:33.944Z,17.58
2019-05-12T09:53:09.389Z,17.60
2019-05-12T09:55:34.394Z,17.56
2019-05-12T09:58:03.955Z,17.15
2019-05-12T10:00:35.966Z,16.79
2019-05-12T10:03:04.837Z,16.30
2019-05-12T10:05:39.234Z,15.87
2019-05-12T10:08:04.520Z,15.55
2019-05-12T10:10:35.507Z,15.64
2019-05-12T10:13:04.678Z,15.86
2019-05-12T10:15:33.135Z,15.89
2019-05-12T10:18:06.437Z,15.66
2019-05-12T10:20:35.171Z,15.70
2019-05-12T10:23:01.328Z,16.08
2019-05-12T10:25:30.748Z,16.54
2019-05-12T10:28:02.930Z,17.06
2019-05-12T10:30:29.005Z,17.52
2019-05-12T10:32:57.205Z,17.87
2019-05-12T10:35:26.810Z,18.12
2019-05-12T10:38:00.018Z,18.38
2019-05-12T10:40:25.060Z,18.78
2019-05-12T10:42:53.596Z,19.17
2019-05-12T10:45:23.464Z,19.33
2019-05-12T10:47:51.863Z,19.33
2019-05-12T10:50:20.086Z,19.43
2019-05-12T10:52:48.216Z,19.62
2019-05-12T10:55:16.369Z,19.75
2019-05-12T10:57:47.293Z,20.01
2019-05-12T11:00:23.191Z,20.01
2019-05-12T11:02:45.397Z,20.22
2019-05-12T11:05:21.399Z,20.31
2019-05-12T11:07:43.568Z,20.32
2019-05-12T11:10:19.122Z,20.39
2019-05-12T11:12:44.177Z,20.19
2019-05-12T11:15:13.598Z,20.03
2019-05-12T11:17:46.017Z,19.96
2019-05-12T11:20:14.121Z,20.20
2019-05-12T11:22:43.821Z,20.32
2019-05-12T11:25:11.495Z,20.65
2019-05-12T11:27:40.562Z,20.94
2019-05-12T11:30:13.100Z,21.14
2019-05-12T11:32:41.121Z,21.17
2019-05-12T11:35:09.215Z,21.21
2019-05-12T11:37:37.359Z,21.39
2019-05-12T11:40:05.749Z,21.51
2019-05-12T11:42:33.877Z,21.67
2019-05-12T11:45:02.001Z,21.90
2019-05-12T11:47:30.143Z,22.04
2019-05-12T11:50:03.439Z,22.20
2019-05-12T11:52:28.093Z,22.34
2019-05-12T11:54:56.253Z,22.03
2019-05-12T11:57:26.260Z,22.06
2019-05-12T12:00:02.291Z,22.06
2019-05-12T12:02:26.268Z,22.11
2019-05-12T12:04:54.404Z,22.21
2019-05-12T12:07:23.926Z,22.23
2019-05-12T12:09:56.175Z,22.16
2019-05-12T12:12:24.187Z,22.33
2019-05-12T12:14:53.641Z,22.46
2019-05-12T12:17:22.884Z,22.42
2019-05-12T12:19:54.257Z,22.37
2019-05-12T12:22:26.593Z,22.35
2019-05-12T12:24:51.504Z,21.94
2019-05-12T12:27:19.647Z,21.70
2019-05-12T12:29:47.859Z,21.56
2019-05-12T12:32:20.156Z,21.38
2019-05-12T12:34:45.871Z,20.97
2019-05-12T12:37:18.780Z,20.46
2019-05-12T12:39:43.894Z,20.17
2019-05-12T12:42:13.998Z,20.08
2019-05-12T12:44:42.217Z,20.07
2019-05-12T12:47:10.316Z,20.09
2019-05-12T12:49:39.965Z,19.92
2019-05-12T12:52:08.723Z,19.61
2019-05-12T12:54:36.837Z,19.05
2019-05-12T12:57:09.625Z,18.90
2019-05-12T12:59:34.907Z,18.80
2019-05-12T13:02:05.877Z,18.61
2019-05-12T13:04:34.099Z,18.44
2019-05-12T13:07:04.503Z,18.22
2019-05-12T13:09:33.510Z,18.05
2019-05-12T13:12:11.347Z,17.66
2019-05-12T13:14:36.496Z,17.39
2019-05-12T13:17:01.618Z,17.16
2019-05-12T13:19:29.744Z,17.02
2019-05-12T13:21:57.907Z,16.86
2019-05-12T13:24:26.059Z,16.70
2019-05-12T13:26:54.175Z,16.60
2019-05-12T13:29:26.380Z,16.55
2019-05-12T13:31:53.854Z,16.49
2019-05-12T13:34:23.728Z,16.44
2019-05-12T13:36:54.424Z,16.33
2019-05-12T13:39:24.096Z,16.19
2019-05-12T13:41:57.619Z,16.02
2019-05-12T13:44:23.971Z,15.95
2019-05-12T13:46:54.764Z,15.93
2019-05-12T13:49:21.177Z,15.84
2019-05-12T13:51:50.386Z,15.71
2019-05-12T13:54:20.097Z,15.55
2019-05-12T13:56:48.516Z,15.57
2019-05-12T13:59:20.723Z,15.47
2019-05-12T14:01:46.526Z,15.45
2019-05-12T14:04:14.718Z,15.46
2019-05-12T14:06:42.834Z,15.52
2019-05-12T14:09:13.435Z,15.63
2019-05-12T14:11:43.496Z,15.73
2019-05-12T14:14:12.327Z,15.69
2019-05-12T14:16:44.456Z,15.58
2019-05-12T14:19:10.448Z,15.41
2019-05-12T14:21:41.021Z,15.21
2019-05-12T14:24:08.488Z,15.13
2019-05-12T14:26:39.371Z,15.09
2019-05-12T14:29:06.488Z,15.07
2019-05-12T14:31:36.323Z,14.92
2019-05-12T14:34:04.549Z,14.87
2019-05-12T14:36:32.678Z,14.75
2019-05-12T14:39:06.123Z,14.68
2019-05-12T14:41:30.671Z,14.64
2019-05-12T14:44:03.475Z,14.65
2019-05-12T14:46:28.858Z,14.73
2019-05-12T14:48:57.023Z,14.77
2019-05-12T14:51:25.176Z,14.83
2019-05-12T14:53:53.604Z,14.85
2019-05-12T14:56:23.384Z,14.85
2019-05-12T14:58:56.457Z,14.82
2019-05-12T15:01:23.661Z,14.71
2019-05-12T15:03:53.449Z,14.66
2019-05-12T15:06:25.577Z,14.52
2019-05-12T15:08:51.082Z,14.41
2019-05-12T15:11:19.199Z,14.30
2019-05-12T15:13:47.302Z,14.32
2019-05-12T15:16:15.444Z,14.31
2019-05-12T15:18:46.818Z,14.26
2019-05-12T15:21:13.862Z,14.31
2019-05-12T15:23:44.155Z,14.40
2019-05-12T15:26:15.717Z,14.45
2019-05-12T15:28:43.396Z,14.59
2019-05-12T15:31:13.739Z,14.80
2019-05-12T15:33:43.820Z,15.09
2019-05-12T15:36:13.676Z,15.24
2019-05-12T15:38:43.597Z,15.41
2019-05-12T15:41:16.885Z,15.43
2019-05-12T15:43:44.199Z,15.29
2019-05-12T15:46:11.121Z,15.32
2019-05-12T15:48:39.270Z,15.16
2019-05-12T15:51:08.737Z,15.06
2019-05-12T15:53:37.253Z,14.85
2019-05-12T15:56:14.760Z,14.75
2019-05-12T15:58:35.933Z,14.52
2019-05-12T16:01:04.527Z,14.34
2019-05-12T16:03:34.312Z,14.05
2019-05-12T16:06:10.143Z,14.08
2019-05-12T16:08:33.410Z,14.14
2019-05-12T16:11:01.745Z,14.28
2019-05-12T16:13:30.039Z,14.31
2019-05-12T16:16:03.571Z,14.20
2019-05-12T16:18:28.094Z,14.00
2019-05-12T16:20:59.113Z,13.71
2019-05-12T16:23:30.070Z,13.46
2019-05-12T16:25:56.046Z,13.32
2019-05-12T16:28:26.702Z,13.33
2019-05-12T16:30:58.794Z,13.33
2019-05-12T16:33:23.977Z,13.28
2019-05-12T16:35:54.334Z,13.22
2019-05-12T16:38:23.634Z,13.16
2019-05-12T16:40:53.939Z,13.11
2019-05-12T16:43:23.700Z,13.12
2019-05-12T16:45:53.637Z,13.11
2019-05-12T16:48:31.353Z,13.02
2019-05-12T16:50:51.870Z,12.89
2019-05-12T16:53:23.447Z,12.75
2019-05-12T16:55:50.122Z,12.59
2019-05-12T16:58:18.160Z,12.48
2019-05-12T17:00:49.384Z,12.38
2019-05-12T17:03:18.315Z,12.26
2019-05-12T17:05:50.213Z,12.15
2019-05-12T17:08:16.423Z,12.07
2019-05-12T17:10:49.690Z,11.99
2019-05-12T17:13:16.093Z,11.92
2019-05-12T17:15:48.608Z,11.83
2019-05-12T17:18:14.253Z,11.75
2019-05-12T17:20:47.093Z,11.64
2019-05-12T17:23:13.839Z,11.55
2019-05-12T17:25:42.219Z,11.47
2019-05-12T17:28:10.331Z,11.41
2019-05-12T17:30:38.453Z,11.37
2019-05-12T17:33:06.581Z,11.34
2019-05-12T17:35:35.167Z,11.28
2019-05-12T17:38:04.253Z,11.25
2019-05-12T17:40:33.909Z,11.22
2019-05-12T17:43:09.934Z,11.22
2019-05-12T17:45:32.106Z,11.23
2019-05-12T17:48:05.920Z,11.21
2019-05-12T17:50:30.386Z,11.19
2019-05-12T17:53:00.407Z,11.15
2019-05-12T17:55:28.421Z,11.13
2019-05-12T17:57:57.880Z,11.12
2019-05-12T18:00:26.585Z,11.12
2019-05-12T18:03:00.113Z,11.14
2019-05-12T18:05:24.623Z,11.14
2019-05-12T18:07:54.890Z,11.11
2019-05-12T18:10:23.912Z,11.10
2019-05-12T18:12:53.487Z,11.05
2019-05-12T18:15:23.420Z,11.03
2019-05-12T18:17:53.303Z,10.97
2019-05-12T18:20:23.811Z,10.88
2019-05-12T18:22:53.559Z,10.83
2019-05-12T18:25:30.174Z,10.76
2019-05-12T18:27:51.270Z,10.68
2019-05-12T18:30:19.420Z,10.59
2019-05-12T18:32:47.514Z,10.52
2019-05-12T18:35:15.643Z,10.47
2019-05-12T18:37:43.810Z,10.39
2019-05-12T18:40:14.420Z,10.31
2019-05-12T18:42:41.936Z,10.26
2019-05-12T18:45:16.737Z,10.20
2019-05-12T18:47:40.380Z,10.15
2019-05-12T18:50:09.858Z,10.09
2019-05-12T18:52:42.979Z,10.03
2019-05-12T18:55:08.087Z,9.98
2019-05-12T18:57:39.277Z,9.92
2019-05-12T19:00:13.919Z,9.87
2019-05-12T19:02:44.244Z,9.82
2019-05-12T19:05:15.246Z,9.78
2019-05-12T19:07:43.738Z,9.75
2019-05-12T19:10:13.995Z,9.71
2019-05-12T19:12:43.701Z,9.66
2019-05-12T19:15:17.056Z,9.61
2019-05-12T19:17:43.617Z,9.56
2019-05-12T19:20:13.412Z,9.53
2019-05-12T19:22:48.193Z,9.48
2019-05-12T19:25:14.629Z,9.42
2019-05-12T19:27:45.708Z,9.37
2019-05-12T19:30:13.797Z,9.33
2019-05-12T19:32:45.078Z,9.27
2019-05-12T19:35:18.019Z,9.23
2019-05-12T19:37:45.109Z,9.21
2019-05-12T19:40:16.541Z,9.16
2019-05-12T19:42:42.710Z,9.13
2019-05-12T19:45:21.456Z,9.08
2019-05-12T19:47:44.209Z,9.04
2019-05-12T19:50:15.737Z,9.00
2019-05-12T19:52:41.670Z,8.96
2019-05-12T19:55:09.814Z,8.92
2019-05-12T19:57:37.974Z,8.88
2019-05-12T20:00:07.167Z,8.85
2019-05-12T20:02:35.310Z,8.81
2019-05-12T20:05:04.704Z,8.77
2019-05-12T20:07:33.873Z,8.73
2019-05-12T20:10:04.811Z,8.69
2019-05-12T20:12:34.325Z,8.65
2019-05-12T20:15:04.027Z,8.61
2019-05-12T20:17:33.849Z,8.56
2019-05-12T20:20:04.689Z,8.53
2019-05-12T20:22:33.429Z,8.48
2019-05-12T20:25:04.418Z,8.45
2019-05-12T20:27:34.514Z,8.41
2019-05-12T20:30:07.162Z,8.37
2019-05-12T20:32:34.406Z,8.34
2019-05-12T20:35:06.129Z,8.30
2019-05-12T20:37:57.310Z,8.27
2019-05-12T20:40:32.217Z,8.24
2019-05-12T20:43:08.578Z,8.19
2019-05-12T20:45:40.923Z,8.15
2019-05-12T20:48:06.148Z,8.12
2019-05-12T20:50:38.566Z,8.09
2019-05-12T20:53:06.410Z,8.06
2019-05-12T20:55:36.580Z,8.03
2019-05-12T20:58:04.642Z,8.01
2019-05-12T21:00:38.882Z,7.96
2019-05-12T21:03:04.349Z,7.94
2019-05-12T21:05:34.296Z,7.90
2019-05-12T21:08:12.120Z,7.89
2019-05-12T21:10:37.902Z,7.85
2019-05-12T21:13:07.904Z,7.81
2019-05-12T21:15:42.647Z,7.80
2019-05-12T21:18:07.438Z,7.77
2019-05-12T21:20:35.810Z,7.74
2019-05-12T21:23:03.937Z,7.72
2019-05-12T21:25:33.872Z,7.69
2019-05-12T21:28:07.677Z,7.66
2019-05-12T21:30:33.938Z,7.65
2019-05-12T21:33:02.327Z,7.61
2019-05-12T21:35:31.956Z,7.60
2019-05-12T21:38:00.283Z,7.58
2019-05-12T21:40:30.519Z,7.54
2019-05-12T21:42:58.253Z,7.52
2019-05-12T21:45:30.700Z,7.49
2019-05-12T21:47:56.701Z,7.47
2019-05-12T21:50:32.677Z,7.45
2019-05-12T21:52:59.404Z,7.42
2019-05-12T21:55:26.514Z,7.40
2019-05-12T21:57:54.511Z,7.36
2019-05-12T22:00:28.917Z,7.33
2019-05-12T22:03:02.485Z,7.31
2019-05-12T22:05:47.091Z,7.28
2019-05-12T22:07:56.986Z,7.26
2019-05-12T22:10:26.690Z,7.23
2019-05-12T22:12:54.939Z,7.19
2019-05-12T22:15:24.496Z,7.16
2019-05-12T22:17:54.280Z,7.13
2019-05-12T22:20:23.693Z,7.10
2019-05-12T22:22:51.929Z,7.07
2019-05-12T22:25:20.147Z,7.04
2019-05-12T22:27:48.393Z,7.02
2019-05-12T22:30:16.623Z,6.99
2019-05-12T22:32:44.773Z,6.96
2019-05-12T22:35:21.632Z,6.93
2019-05-12T22:37:44.681Z,6.90
2019-05-12T22:40:15.063Z,6.88
2019-05-12T22:42:44.454Z,6.84
2019-05-12T22:45:15.116Z,6.81
2019-05-12T22:47:43.973Z,6.79
2019-05-12T22:50:13.636Z,6.76
2019-05-12T22:52:45.255Z,6.74
2019-05-12T22:55:13.989Z,6.70
2019-05-12T22:57:43.472Z,6.67
2019-05-12T23:00:13.508Z,6.63
2019-05-12T23:02:44.470Z,6.59
2019-05-12T23:05:18.908Z,6.56
2019-05-12T23:07:43.815Z,6.53
2019-05-12T23:10:14.188Z,6.48
2019-05-12T23:12:41.593Z,6.43
2019-05-12T23:15:10.123Z,6.37
2019-05-12T23:17:39.100Z,6.34
2019-05-12T23:20:08.419Z,6.30
2019-05-12T23:22:36.875Z,6.25
2019-05-12T23:25:05.813Z,6.21
2019-05-12T23:27:33.925Z,6.19
2019-05-12T23:30:10.839Z,6.14
2019-05-12T23:32:34.493Z,6.11
2019-05-12T23:35:03.906Z,6.05
2019-05-12T23:37:36.159Z,6.01
2019-05-12T23:40:04.184Z,5.98
2019-05-12T23:42:31.666Z,5.94
2019-05-12T23:45:03.453Z,5.91
2019-05-12T23:47:31.402Z,5.86
2019-05-12T23:49:59.505Z,5.83
2019-05-12T23:52:27.597Z,5.78
2019-05-12T23:54:55.815Z,5.75
2019-05-12T23:57:24.609Z,5.73
2019-05-12T23:59:52.744Z,5.70
